sensor_id;sensor_type;location;lat;lon;timestamp;pressure;altitude;pressure_sealevel;temperature;humidity
21706;BME280;11014;53.076;18.208;2022-10-15T00:01:51;100994.66;;;16.64;67.51
21706;BME280;11014;53.076;18.208;2022-10-15T00:04:20;100993.81;;;16.63;67.50
21706;BME280;11014;53.076;18.208;2022-10-15T00:07:16;100989.78;;;16.66;67.67
21706;BME280;11014;53.076;18.208;2022-10-15T00:09:44;100987.59;;;16.68;67.65
21706;BME280;11014;53.076;18.208;2022-10-15T00:12:12;100985.72;;;16.68;67.47
21706;BME280;11014;53.076;18.208;2022-10-15T00:14:41;100972.16;;;16.68;67.34
21706;BME280;11014;53.076;18.208;2022-10-15T00:17:09;100972.97;;;16.69;67.28
21706;BME280;11014;53.076;18.208;2022-10-15T00:19:38;100971.88;;;16.70;67.21
21706;BME280;11014;53.076;18.208;2022-10-15T00:22:06;100970.00;;;16.70;67.22
21706;BME280;11014;53.076;18.208;2022-10-15T00:24:35;100963.19;;;16.68;67.40
21706;BME280;11014;53.076;18.208;2022-10-15T00:27:04;100965.66;;;16.69;67.29
21706;BME280;11014;53.076;18.208;2022-10-15T00:29:32;100965.09;;;16.67;67.19
21706;BME280;11014;53.076;18.208;2022-10-15T00:32:01;100966.19;;;16.66;67.06
21706;BME280;11014;53.076;18.208;2022-10-15T00:34:30;100966.97;;;16.67;67.38
21706;BME280;11014;53.076;18.208;2022-10-15T00:36:59;100975.09;;;16.67;67.21
21706;BME280;11014;53.076;18.208;2022-10-15T00:39:27;100966.44;;;16.65;67.19
21706;BME280;11014;53.076;18.208;2022-10-15T00:41:56;100968.56;;;16.57;67.17
21706;BME280;11014;53.076;18.208;2022-10-15T00:49:38;100967.88;;;16.40;67.13
21706;BME280;11014;53.076;18.208;2022-10-15T00:52:25;100955.31;;;16.29;66.80
21706;BME280;11014;53.076;18.208;2022-10-15T00:55:14;100963.38;;;16.19;67.01
21706;BME280;11014;53.076;18.208;2022-10-15T00:57:46;100948.09;;;16.08;67.24
21706;BME280;11014;53.076;18.208;2022-10-15T01:00:17;100953.19;;;15.99;66.98
21706;BME280;11014;53.076;18.208;2022-10-15T01:02:46;100958.78;;;15.93;67.14
21706;BME280;11014;53.076;18.208;2022-10-15T01:05:16;100960.09;;;15.85;67.20
21706;BME280;11014;53.076;18.208;2022-10-15T01:07:44;100959.50;;;15.78;67.30
21706;BME280;11014;53.076;18.208;2022-10-15T01:10:17;100958.88;;;15.71;67.07
21706;BME280;11014;53.076;18.208;2022-10-15T01:29:29;100933.38;;;15.19;67.00
21706;BME280;11014;53.076;18.208;2022-10-15T01:32:17;100925.94;;;15.09;67.19
21706;BME280;11014;53.076;18.208;2022-10-15T01:37:53;100925.78;;;14.94;67.80
21706;BME280;11014;53.076;18.208;2022-10-15T01:40:52;100937.09;;;14.91;67.92
21706;BME280;11014;53.076;18.208;2022-10-15T01:49:25;100933.06;;;14.72;67.62
21706;BME280;11014;53.076;18.208;2022-10-15T01:52:11;100936.75;;;14.66;67.85
21706;BME280;11014;53.076;18.208;2022-10-15T01:54:43;100937.75;;;14.60;67.80
21706;BME280;11014;53.076;18.208;2022-10-15T01:57:17;100943.56;;;14.52;67.62
21706;BME280;11014;53.076;18.208;2022-10-15T01:59:46;100947.44;;;14.56;67.68
21706;BME280;11014;53.076;18.208;2022-10-15T02:02:15;100951.06;;;14.45;67.27
21706;BME280;11014;53.076;18.208;2022-10-15T02:04:45;100931.47;;;14.38;67.61
21706;BME280;11014;53.076;18.208;2022-10-15T02:13:22;100927.09;;;14.32;68.35
21706;BME280;11014;53.076;18.208;2022-10-15T02:21:21;100915.34;;;14.26;68.64
21706;BME280;11014;53.076;18.208;2022-10-15T02:23:55;100916.41;;;14.25;68.67
21706;BME280;11014;53.076;18.208;2022-10-15T02:26:27;100909.84;;;14.21;68.80
21706;BME280;11014;53.076;18.208;2022-10-15T02:28:58;100915.16;;;14.16;68.57
21706;BME280;11014;53.076;18.208;2022-10-15T02:31:30;100906.75;;;14.12;68.66
21706;BME280;11014;53.076;18.208;2022-10-15T02:34:05;100906.16;;;14.10;68.54
21706;BME280;11014;53.076;18.208;2022-10-15T02:36:38;100905.53;;;14.03;68.73
21706;BME280;11014;53.076;18.208;2022-10-15T02:39:33;100901.94;;;13.98;68.70
21706;BME280;11014;53.076;18.208;2022-10-15T02:42:03;100901.03;;;13.92;68.79
21706;BME280;11014;53.076;18.208;2022-10-15T02:44:32;100903.66;;;13.87;68.43
21706;BME280;11014;53.076;18.208;2022-10-15T02:47:02;100905.44;;;13.82;68.24
21706;BME280;11014;53.076;18.208;2022-10-15T02:49:30;100906.16;;;13.77;68.28
21706;BME280;11014;53.076;18.208;2022-10-15T02:51:59;100899.84;;;13.72;68.38
21706;BME280;11014;53.076;18.208;2022-10-15T02:54:27;100900.84;;;13.65;68.15
21706;BME280;11014;53.076;18.208;2022-10-15T02:56:56;100902.16;;;13.63;68.18
21706;BME280;11014;53.076;18.208;2022-10-15T02:59:24;100891.84;;;13.60;68.27
21706;BME280;11014;53.076;18.208;2022-10-15T03:01:54;100891.38;;;13.63;68.55
21706;BME280;11014;53.076;18.208;2022-10-15T03:04:23;100890.53;;;13.62;68.08
21706;BME280;11014;53.076;18.208;2022-10-15T03:06:51;100880.78;;;13.61;68.22
21706;BME280;11014;53.076;18.208;2022-10-15T03:09:20;100887.00;;;13.62;68.17
21706;BME280;11014;53.076;18.208;2022-10-15T03:11:48;100892.66;;;13.60;68.30
21706;BME280;11014;53.076;18.208;2022-10-15T03:14:17;100888.88;;;13.61;68.76
21706;BME280;11014;53.076;18.208;2022-10-15T03:16:46;100889.22;;;13.65;68.85
21706;BME280;11014;53.076;18.208;2022-10-15T03:19:19;100882.19;;;13.64;68.84
21706;BME280;11014;53.076;18.208;2022-10-15T03:21:48;100886.28;;;13.66;68.94
21706;BME280;11014;53.076;18.208;2022-10-15T03:24:17;100876.06;;;13.69;68.63
21706;BME280;11014;53.076;18.208;2022-10-15T03:26:45;100878.16;;;13.66;68.87
21706;BME280;11014;53.076;18.208;2022-10-15T03:29:13;100882.38;;;13.74;69.01
21706;BME280;11014;53.076;18.208;2022-10-15T03:31:47;100879.41;;;13.76;68.91
21706;BME280;11014;53.076;18.208;2022-10-15T03:34:16;100876.47;;;13.77;69.13
21706;BME280;11014;53.076;18.208;2022-10-15T03:36:46;100876.47;;;13.77;69.07
21706;BME280;11014;53.076;18.208;2022-10-15T03:39:15;100870.84;;;13.79;69.18
21706;BME280;11014;53.076;18.208;2022-10-15T03:41:44;100868.97;;;13.79;69.44
21706;BME280;11014;53.076;18.208;2022-10-15T03:44:20;100870.28;;;13.77;69.35
21706;BME280;11014;53.076;18.208;2022-10-15T03:47:01;100869.44;;;13.76;69.31
21706;BME280;11014;53.076;18.208;2022-10-15T03:49:42;100865.00;;;13.70;69.32
21706;BME280;11014;53.076;18.208;2022-10-15T03:52:11;100859.63;;;13.70;69.38
21706;BME280;11014;53.076;18.208;2022-10-15T03:54:41;100848.47;;;13.66;69.59
21706;BME280;11014;53.076;18.208;2022-10-15T03:57:11;100848.19;;;13.63;69.68
21706;BME280;11014;53.076;18.208;2022-10-15T03:59:45;100845.69;;;13.61;69.84
21706;BME280;11014;53.076;18.208;2022-10-15T04:02:15;100843.50;;;13.58;69.83
21706;BME280;11014;53.076;18.208;2022-10-15T04:04:43;100854.78;;;13.55;69.94
21706;BME280;11014;53.076;18.208;2022-10-15T04:07:12;100844.22;;;13.54;69.96
21706;BME280;11014;53.076;18.208;2022-10-15T04:09:41;100851.75;;;13.52;69.84
21706;BME280;11014;53.076;18.208;2022-10-15T04:12:22;100851.16;;;13.50;70.02
21706;BME280;11014;53.076;18.208;2022-10-15T04:14:51;100861.97;;;13.50;70.15
21706;BME280;11014;53.076;18.208;2022-10-15T04:17:19;100858.47;;;13.49;69.93
21706;BME280;11014;53.076;18.208;2022-10-15T04:19:49;100859.88;;;13.52;70.03
21706;BME280;11014;53.076;18.208;2022-10-15T04:22:17;100864.19;;;13.53;70.08
21706;BME280;11014;53.076;18.208;2022-10-15T04:24:50;100861.25;;;13.54;70.17
21706;BME280;11014;53.076;18.208;2022-10-15T04:27:28;100867.47;;;13.55;70.29
21706;BME280;11014;53.076;18.208;2022-10-15T04:30:07;100865.56;;;13.55;70.31
21706;BME280;11014;53.076;18.208;2022-10-15T04:32:38;100863.06;;;13.65;70.27
21706;BME280;11014;53.076;18.208;2022-10-15T04:35:08;100860.03;;;13.62;69.85
21706;BME280;11014;53.076;18.208;2022-10-15T04:37:50;100859.47;;;13.60;70.30
21706;BME280;11014;53.076;18.208;2022-10-15T04:40:19;100850.53;;;13.59;70.32
21706;BME280;11014;53.076;18.208;2022-10-15T04:42:47;100847.00;;;13.59;70.44
21706;BME280;11014;53.076;18.208;2022-10-15T04:45:16;100839.97;;;13.58;70.50
21706;BME280;11014;53.076;18.208;2022-10-15T04:47:45;100832.13;;;13.56;70.70
21706;BME280;11014;53.076;18.208;2022-10-15T04:50:15;100834.56;;;13.58;70.43
21706;BME280;11014;53.076;18.208;2022-10-15T04:53:02;100836.22;;;13.59;70.76
21706;BME280;11014;53.076;18.208;2022-10-15T04:55:34;100839.97;;;13.58;70.45
21706;BME280;11014;53.076;18.208;2022-10-15T04:58:03;100848.06;;;13.58;70.36
21706;BME280;11014;53.076;18.208;2022-10-15T05:00:31;100836.69;;;13.56;70.74
21706;BME280;11014;53.076;18.208;2022-10-15T05:03:19;100835.09;;;13.55;70.47
21706;BME280;11014;53.076;18.208;2022-10-15T05:06:02;100835.56;;;13.52;70.81
21706;BME280;11014;53.076;18.208;2022-10-15T05:08:33;100839.88;;;13.53;70.47
21706;BME280;11014;53.076;18.208;2022-10-15T05:11:25;100830.75;;;13.54;70.35
21706;BME280;11014;53.076;18.208;2022-10-15T05:13:57;100836.63;;;13.51;70.62
21706;BME280;11014;53.076;18.208;2022-10-15T05:16:27;100834.41;;;13.48;70.81
21706;BME280;11014;53.076;18.208;2022-10-15T05:19:02;100833.59;;;13.47;70.90
21706;BME280;11014;53.076;18.208;2022-10-15T05:21:33;100831.16;;;13.46;70.64
21706;BME280;11014;53.076;18.208;2022-10-15T05:24:05;100829.00;;;13.48;70.79
21706;BME280;11014;53.076;18.208;2022-10-15T05:26:52;100827.41;;;13.47;70.98
21706;BME280;11014;53.076;18.208;2022-10-15T05:29:23;100826.56;;;13.46;70.94
21706;BME280;11014;53.076;18.208;2022-10-15T05:31:51;100823.06;;;13.46;70.88
21706;BME280;11014;53.076;18.208;2022-10-15T05:34:24;100823.63;;;13.48;71.17
21706;BME280;11014;53.076;18.208;2022-10-15T05:37:00;100819.88;;;13.49;71.11
21706;BME280;11014;53.076;18.208;2022-10-15T05:39:29;100822.88;;;13.52;71.06
21706;BME280;11014;53.076;18.208;2022-10-15T05:41:59;100811.84;;;13.54;71.07
21706;BME280;11014;53.076;18.208;2022-10-15T05:44:46;100820.03;;;13.59;71.50
21706;BME280;11014;53.076;18.208;2022-10-15T05:47:14;100821.75;;;13.65;71.56
21706;BME280;11014;53.076;18.208;2022-10-15T05:49:43;100821.81;;;13.70;71.57
21706;BME280;11014;53.076;18.208;2022-10-15T05:52:16;100816.00;;;13.78;71.77
21706;BME280;11014;53.076;18.208;2022-10-15T05:55:10;100827.44;;;13.85;71.49
21706;BME280;11014;53.076;18.208;2022-10-15T05:57:38;100818.84;;;13.88;71.84
21706;BME280;11014;53.076;18.208;2022-10-15T06:00:07;100828.94;;;13.93;71.80
21706;BME280;11014;53.076;18.208;2022-10-15T06:02:39;100833.66;;;14.02;71.77
21706;BME280;11014;53.076;18.208;2022-10-15T06:05:08;100826.22;;;14.09;72.00
21706;BME280;11014;53.076;18.208;2022-10-15T06:07:36;100828.50;;;14.17;71.96
21706;BME280;11014;53.076;18.208;2022-10-15T06:10:05;100822.41;;;14.27;71.93
21706;BME280;11014;53.076;18.208;2022-10-15T06:12:34;100820.13;;;14.36;72.12
21706;BME280;11014;53.076;18.208;2022-10-15T06:15:03;100820.22;;;14.46;72.49
21706;BME280;11014;53.076;18.208;2022-10-15T06:17:31;100825.78;;;14.56;72.33
21706;BME280;11014;53.076;18.208;2022-10-15T06:20:00;100830.81;;;14.69;72.70
21706;BME280;11014;53.076;18.208;2022-10-15T06:22:32;100838.25;;;14.83;72.60
21706;BME280;11014;53.076;18.208;2022-10-15T06:25:01;100830.34;;;14.99;72.86
21706;BME280;11014;53.076;18.208;2022-10-15T06:27:30;100828.59;;;15.14;72.84
21706;BME280;11014;53.076;18.208;2022-10-15T06:30:00;100838.22;;;15.27;72.93
21706;BME280;11014;53.076;18.208;2022-10-15T06:32:29;100826.16;;;15.39;72.60
21706;BME280;11014;53.076;18.208;2022-10-15T06:34:58;100819.22;;;15.49;72.50
21706;BME280;11014;53.076;18.208;2022-10-15T06:37:51;100828.50;;;15.58;72.40
21706;BME280;11014;53.076;18.208;2022-10-15T06:40:20;100819.88;;;15.66;72.30
21706;BME280;11014;53.076;18.208;2022-10-15T06:42:49;100818.84;;;15.72;72.52
21706;BME280;11014;53.076;18.208;2022-10-15T06:45:17;100834.63;;;15.80;72.62
21706;BME280;11014;53.076;18.208;2022-10-15T06:47:48;100832.53;;;15.87;72.60
21706;BME280;11014;53.076;18.208;2022-10-15T06:50:17;100826.03;;;15.93;72.55
21706;BME280;11014;53.076;18.208;2022-10-15T06:52:46;100829.09;;;16.01;72.69
21706;BME280;11014;53.076;18.208;2022-10-15T06:55:14;100819.91;;;16.08;72.60
21706;BME280;11014;53.076;18.208;2022-10-15T06:57:43;100823.47;;;16.13;72.20
21706;BME280;11014;53.076;18.208;2022-10-15T07:00:17;100827.59;;;16.21;72.02
21706;BME280;11014;53.076;18.208;2022-10-15T07:03:19;100832.25;;;16.30;72.22
21706;BME280;11014;53.076;18.208;2022-10-15T07:05:52;100830.66;;;16.39;71.80
21706;BME280;11014;53.076;18.208;2022-10-15T07:08:24;100828.00;;;16.44;72.15
21706;BME280;11014;53.076;18.208;2022-10-15T07:10:53;100821.25;;;16.52;71.88
21706;BME280;11014;53.076;18.208;2022-10-15T07:13:23;100823.72;;;16.58;71.74
21706;BME280;11014;53.076;18.208;2022-10-15T07:15:51;100826.50;;;16.64;71.56
21706;BME280;11014;53.076;18.208;2022-10-15T07:18:23;100828.66;;;16.67;71.07
21706;BME280;11014;53.076;18.208;2022-10-15T07:20:52;100834.13;;;16.72;71.06
21706;BME280;11014;53.076;18.208;2022-10-15T07:23:20;100833.59;;;16.75;71.12
21706;BME280;11014;53.076;18.208;2022-10-15T07:25:56;100838.44;;;16.78;70.65
21706;BME280;11014;53.076;18.208;2022-10-15T07:28:25;100831.16;;;16.83;70.58
21706;BME280;11014;53.076;18.208;2022-10-15T07:30:58;100832.56;;;16.91;70.33
21706;BME280;11014;53.076;18.208;2022-10-15T07:33:44;100837.44;;;16.94;69.94
21706;BME280;11014;53.076;18.208;2022-10-15T07:36:13;100838.53;;;16.98;69.49
21706;BME280;11014;53.076;18.208;2022-10-15T07:38:42;100839.63;;;17.02;69.27
21706;BME280;11014;53.076;18.208;2022-10-15T07:41:10;100837.75;;;17.07;69.19
21706;BME280;11014;53.076;18.208;2022-10-15T07:43:44;100834.22;;;17.12;68.66
21706;BME280;11014;53.076;18.208;2022-10-15T07:46:14;100835.88;;;17.13;68.46
21706;BME280;11014;53.076;18.208;2022-10-15T07:48:43;100834.78;;;17.19;68.58
21706;BME280;11014;53.076;18.208;2022-10-15T07:51:11;100838.31;;;17.25;68.05
21706;BME280;11014;53.076;18.208;2022-10-15T07:53:40;100832.63;;;17.26;67.40
21706;BME280;11014;53.076;18.208;2022-10-15T07:56:12;100829.91;;;17.31;67.49
21706;BME280;11014;53.076;18.208;2022-10-15T07:58:42;100833.16;;;17.38;67.16
21706;BME280;11014;53.076;18.208;2022-10-15T08:01:10;100835.34;;;17.36;66.54
21706;BME280;11014;53.076;18.208;2022-10-15T08:03:38;100835.06;;;17.33;66.54
21706;BME280;11014;53.076;18.208;2022-10-15T08:06:07;100829.63;;;17.38;66.82
21706;BME280;11014;53.076;18.208;2022-10-15T08:08:37;100836.47;;;17.45;66.92
21706;BME280;11014;53.076;18.208;2022-10-15T08:11:10;100834.59;;;17.56;66.29
21706;BME280;11014;53.076;18.208;2022-10-15T08:13:40;100840.00;;;17.66;66.35
21706;BME280;11014;53.076;18.208;2022-10-15T08:16:10;100841.63;;;17.77;65.84
21706;BME280;11014;53.076;18.208;2022-10-15T08:18:39;100837.28;;;17.91;65.86
21706;BME280;11014;53.076;18.208;2022-10-15T08:21:10;100832.06;;;18.15;65.24
21706;BME280;11014;53.076;18.208;2022-10-15T08:23:39;100837.22;;;18.31;64.75
21706;BME280;11014;53.076;18.208;2022-10-15T08:26:07;100837.75;;;18.49;64.56
21706;BME280;11014;53.076;18.208;2022-10-15T08:28:36;100833.56;;;18.66;64.17
21706;BME280;11014;53.076;18.208;2022-10-15T08:31:05;100834.03;;;18.83;63.72
21706;BME280;11014;53.076;18.208;2022-10-15T08:33:34;100829.63;;;18.98;63.70
21706;BME280;11014;53.076;18.208;2022-10-15T08:36:04;100832.84;;;19.05;62.66
21706;BME280;11014;53.076;18.208;2022-10-15T08:38:33;100836.91;;;19.12;62.22
21706;BME280;11014;53.076;18.208;2022-10-15T08:41:10;100832.72;;;19.25;62.17
21706;BME280;11014;53.076;18.208;2022-10-15T08:43:42;100822.84;;;19.39;62.11
21706;BME280;11014;53.076;18.208;2022-10-15T08:46:21;100820.56;;;19.51;61.59
21706;BME280;11014;53.076;18.208;2022-10-15T08:48:54;100834.69;;;19.58;61.15
21706;BME280;11014;53.076;18.208;2022-10-15T08:51:26;100830.84;;;19.64;60.28
21706;BME280;11014;53.076;18.208;2022-10-15T08:54:00;100823.94;;;19.72;60.01
21706;BME280;11014;53.076;18.208;2022-10-15T08:56:37;100830.13;;;19.82;59.63
21706;BME280;11014;53.076;18.208;2022-10-15T08:59:52;100833.31;;;19.89;58.90
21706;BME280;11014;53.076;18.208;2022-10-15T09:02:33;100833.81;;;19.96;59.37
21706;BME280;11014;53.076;18.208;2022-10-15T09:05:43;100823.41;;;19.98;58.62
21706;BME280;11014;53.076;18.208;2022-10-15T09:08:27;100820.06;;;20.06;58.63
21706;BME280;11014;53.076;18.208;2022-10-15T09:13:56;100827.88;;;20.18;58.14
21706;BME280;11014;53.076;18.208;2022-10-15T09:16:31;100836.28;;;20.22;58.10
21706;BME280;11014;53.076;18.208;2022-10-15T09:19:08;100832.41;;;20.28;57.64
21706;BME280;11014;53.076;18.208;2022-10-15T09:21:39;100828.84;;;20.32;57.37
21706;BME280;11014;53.076;18.208;2022-10-15T09:24:30;100832.66;;;20.31;56.97
21706;BME280;11014;53.076;18.208;2022-10-15T09:30:04;100832.66;;;20.31;57.01
21706;BME280;11014;53.076;18.208;2022-10-15T09:32:42;100822.31;;;20.28;56.71
21706;BME280;11014;53.076;18.208;2022-10-15T09:35:29;100832.41;;;20.28;56.80
21706;BME280;11014;53.076;18.208;2022-10-15T09:43:24;100833.56;;;20.22;56.66
21706;BME280;11014;53.076;18.208;2022-10-15T09:45:57;100835.97;;;20.23;57.08
21706;BME280;11014;53.076;18.208;2022-10-15T09:48:41;100838.44;;;20.25;56.91
21706;BME280;11014;53.076;18.208;2022-10-15T09:53:54;100842.75;;;20.31;57.60
21706;BME280;11014;53.076;18.208;2022-10-15T09:56:34;100838.03;;;20.36;57.80
21706;BME280;11014;53.076;18.208;2022-10-15T09:59:04;100838.81;;;20.42;58.15
21706;BME280;11014;53.076;18.208;2022-10-15T10:01:36;100841.03;;;20.40;58.44
21706;BME280;11014;53.076;18.208;2022-10-15T10:04:09;100833.94;;;20.39;58.50
21706;BME280;11014;53.076;18.208;2022-10-15T10:07:03;100840.72;;;20.41;58.91
21706;BME280;11014;53.076;18.208;2022-10-15T10:09:57;100844.25;;;20.42;58.83
21706;BME280;11014;53.076;18.208;2022-10-15T10:12:30;100844.25;;;20.42;58.97
21706;BME280;11014;53.076;18.208;2022-10-15T10:22:57;100845.31;;;20.46;58.81
21706;BME280;11014;53.076;18.208;2022-10-15T10:25:41;100849.16;;;20.45;58.88
21706;BME280;11014;53.076;18.208;2022-10-15T10:31:06;100851.34;;;20.43;58.24
21706;BME280;11014;53.076;18.208;2022-10-15T10:33:42;100846.72;;;20.43;58.02
21706;BME280;11014;53.076;18.208;2022-10-15T10:36:38;100846.34;;;20.50;57.99
21706;BME280;11014;53.076;18.208;2022-10-15T10:41:59;100842.47;;;20.56;58.01
21706;BME280;11014;53.076;18.208;2022-10-15T10:45:05;100840.19;;;20.63;58.04
21706;BME280;11014;53.076;18.208;2022-10-15T10:48:21;100840.09;;;20.73;58.26
21706;BME280;11014;53.076;18.208;2022-10-15T10:51:26;100838.53;;;20.86;58.01
21706;BME280;11014;53.076;18.208;2022-10-15T10:54:07;100829.53;;;21.04;57.81
21706;BME280;11014;53.076;18.208;2022-10-15T10:57:12;100830.03;;;21.30;56.82
21706;BME280;11014;53.076;18.208;2022-10-15T11:00:38;100824.94;;;21.42;56.68
21706;BME280;11014;53.076;18.208;2022-10-15T11:29:55;100829.22;;;22.12;53.69
21706;BME280;11014;53.076;18.208;2022-10-15T11:38:29;100823.75;;;22.12;53.82
21706;BME280;11014;53.076;18.208;2022-10-15T11:57:50;100814.81;;;22.20;53.99
21706;BME280;11014;53.076;18.208;2022-10-15T12:00:30;100819.69;;;22.23;54.06
21706;BME280;11014;53.076;18.208;2022-10-15T12:03:24;100815.75;;;22.29;53.98
21706;BME280;11014;53.076;18.208;2022-10-15T12:09:02;100811.59;;;22.18;53.50
21706;BME280;11014;53.076;18.208;2022-10-15T12:11:48;100834.47;;;22.22;53.54
21706;BME280;11014;53.076;18.208;2022-10-15T12:17:10;100823.16;;;22.42;52.84
21706;BME280;11014;53.076;18.208;2022-10-15T12:20:21;100818.28;;;22.39;52.42
21706;BME280;11014;53.076;18.208;2022-10-15T12:22:53;100820.69;;;22.41;52.54
21706;BME280;11014;53.076;18.208;2022-10-15T12:25:39;100817.56;;;22.48;53.13
21706;BME280;11014;53.076;18.208;2022-10-15T12:28:23;100823.84;;;22.62;52.89
21706;BME280;11014;53.076;18.208;2022-10-15T12:31:02;100820.59;;;22.73;52.09
21706;BME280;11014;53.076;18.208;2022-10-15T12:33:38;100826.00;;;22.78;51.35
21706;BME280;11014;53.076;18.208;2022-10-15T12:42:38;100814.50;;;22.90;51.18
21706;BME280;11014;53.076;18.208;2022-10-15T12:45:20;100817.66;;;22.83;51.21
21706;BME280;11014;53.076;18.208;2022-10-15T12:50:38;100815.63;;;22.89;51.93
21706;BME280;11014;53.076;18.208;2022-10-15T14:18:50;100805.69;;;22.11;58.01
21706;BME280;11014;53.076;18.208;2022-10-15T14:21:23;100799.22;;;22.21;56.91
21706;BME280;11014;53.076;18.208;2022-10-15T14:24:21;100808.16;;;22.26;57.02
21706;BME280;11014;53.076;18.208;2022-10-15T14:26:50;100807.22;;;22.31;56.61
21706;BME280;11014;53.076;18.208;2022-10-15T14:29:27;100801.44;;;22.32;56.50
21706;BME280;11014;53.076;18.208;2022-10-15T14:31:56;100804.09;;;22.37;56.43
21706;BME280;11014;53.076;18.208;2022-10-15T14:42:45;100813.41;;;22.36;55.54
21706;BME280;11014;53.076;18.208;2022-10-15T14:47:57;100802.06;;;22.29;55.16
21706;BME280;11014;53.076;18.208;2022-10-15T14:50:32;100811.50;;;22.23;55.10
21706;BME280;11014;53.076;18.208;2022-10-15T14:53:07;100811.59;;;22.18;55.24
21706;BME280;11014;53.076;18.208;2022-10-15T14:55:41;100820.69;;;22.14;55.43
21706;BME280;11014;53.076;18.208;2022-10-15T14:58:17;100822.41;;;22.10;55.69
21706;BME280;11014;53.076;18.208;2022-10-15T15:00:48;100823.31;;;22.05;55.65
21706;BME280;11014;53.076;18.208;2022-10-15T15:03:26;100816.41;;;21.94;55.38
21706;BME280;11014;53.076;18.208;2022-10-15T15:05:56;100823.13;;;21.83;55.55
21706;BME280;11014;53.076;18.208;2022-10-15T15:08:25;100821.63;;;21.77;56.02
21706;BME280;11014;53.076;18.208;2022-10-15T15:10:55;100815.91;;;21.73;56.16
21706;BME280;11014;53.076;18.208;2022-10-15T15:13:27;100823.31;;;21.73;55.98
21706;BME280;11014;53.076;18.208;2022-10-15T15:15:56;100824.44;;;21.72;56.33
21706;BME280;11014;53.076;18.208;2022-10-15T15:18:25;100825.03;;;21.69;56.52
21706;BME280;11014;53.076;18.208;2022-10-15T15:20:58;100826.44;;;21.66;56.41
21706;BME280;11014;53.076;18.208;2022-10-15T15:23:28;100822.91;;;21.66;56.57
21706;BME280;11014;53.076;18.208;2022-10-15T15:25:57;100827.22;;;21.67;56.53
21706;BME280;11014;53.076;18.208;2022-10-15T15:28:27;100826.94;;;21.68;56.73
21706;BME280;11014;53.076;18.208;2022-10-15T15:30:58;100831.28;;;21.69;56.73
21706;BME280;11014;53.076;18.208;2022-10-15T15:33:27;100829.38;;;21.70;56.83
21706;BME280;11014;53.076;18.208;2022-10-15T15:36:08;100824.22;;;21.68;56.75
21706;BME280;11014;53.076;18.208;2022-10-15T15:38:38;100823.72;;;21.66;56.70
21706;BME280;11014;53.076;18.208;2022-10-15T15:41:18;100824.59;;;21.62;56.55
21706;BME280;11014;53.076;18.208;2022-10-15T15:43:50;100820.84;;;21.58;56.59
21706;BME280;11014;53.076;18.208;2022-10-15T15:46:19;100822.53;;;21.54;57.05
21706;BME280;11014;53.076;18.208;2022-10-15T15:48:48;100830.00;;;21.48;57.15
21706;BME280;11014;53.076;18.208;2022-10-15T15:53:49;100828.75;;;21.41;57.11
21706;BME280;11014;53.076;18.208;2022-10-15T15:56:18;100829.94;;;21.35;57.49
21706;BME280;11014;53.076;18.208;2022-10-15T15:58:47;100832.16;;;21.33;57.34
21706;BME280;11014;53.076;18.208;2022-10-15T16:01:18;100826.19;;;21.31;57.46
21706;BME280;11014;53.076;18.208;2022-10-15T16:03:48;100831.13;;;21.28;57.66
21706;BME280;11014;53.076;18.208;2022-10-15T16:06:16;100829.53;;;21.27;57.86
21706;BME280;11014;53.076;18.208;2022-10-15T16:08:45;100849.75;;;21.26;57.91
21706;BME280;11014;53.076;18.208;2022-10-15T16:11:13;100851.16;;;21.24;57.89
21706;BME280;11014;53.076;18.208;2022-10-15T16:13:42;100852.56;;;21.21;57.80
21706;BME280;11014;53.076;18.208;2022-10-15T16:16:11;100859.41;;;21.19;58.02
21706;BME280;11014;53.076;18.208;2022-10-15T16:18:40;100860.50;;;21.18;58.32
21706;BME280;11014;53.076;18.208;2022-10-15T16:21:09;100860.00;;;21.16;58.38
21706;BME280;11014;53.076;18.208;2022-10-15T16:23:38;100864.97;;;21.14;58.37
21706;BME280;11014;53.076;18.208;2022-10-15T16:26:06;100865.81;;;21.09;58.26
21706;BME280;11014;53.076;18.208;2022-10-15T16:28:35;100871.88;;;21.06;58.29
21706;BME280;11014;53.076;18.208;2022-10-15T16:31:23;100872.44;;;21.03;58.77
21706;BME280;11014;53.076;18.208;2022-10-15T16:33:57;100887.19;;;21.02;58.60
21706;BME280;11014;53.076;18.208;2022-10-15T16:36:26;100888.03;;;21.03;58.82
21706;BME280;11014;53.076;18.208;2022-10-15T16:38:55;100881.22;;;21.00;58.70
21706;BME280;11014;53.076;18.208;2022-10-15T16:41:24;100887.78;;;20.99;59.03
21706;BME280;11014;53.076;18.208;2022-10-15T16:43:53;100886.19;;;20.98;59.11
21706;BME280;11014;53.076;18.208;2022-10-15T16:46:21;100893.00;;;20.96;59.04
21706;BME280;11014;53.076;18.208;2022-10-15T16:48:52;100887.34;;;20.92;59.16
21706;BME280;11014;53.076;18.208;2022-10-15T16:51:22;100898.03;;;20.89;59.50
21706;BME280;11014;53.076;18.208;2022-10-15T16:53:52;100884.44;;;20.84;59.65
21706;BME280;11014;53.076;18.208;2022-10-15T16:56:23;100885.31;;;20.79;59.74
21706;BME280;11014;53.076;18.208;2022-10-15T16:58:53;100894.09;;;20.76;59.76
21706;BME280;11014;53.076;18.208;2022-10-15T17:01:24;100900.13;;;20.73;60.08
21706;BME280;11014;53.076;18.208;2022-10-15T17:03:54;100898.81;;;20.71;60.39
21706;BME280;11014;53.076;18.208;2022-10-15T17:06:24;100897.47;;;20.68;60.37
21706;BME280;11014;53.076;18.208;2022-10-15T17:08:56;100905.13;;;20.66;60.69